createdAt,value
2023-04-13T00:00:23.849Z,61.69
2023-04-13T00:02:55.834Z,62.00
2023-04-13T00:05:25.069Z,62.47
2023-04-13T00:07:54.803Z,62.14
2023-04-13T00:10:22.874Z,62.51
2023-04-13T00:12:52.000Z,62.08
2023-04-13T00:15:20.646Z,63.17
2023-04-13T00:17:48.618Z,62.67
2023-04-13T00:20:16.751Z,62.95
2023-04-13T00:22:45.809Z,63.14
2023-04-13T00:25:16.507Z,63.23
2023-04-13T00:27:44.895Z,63.65
2023-04-13T00:30:15.747Z,63.69
2023-04-13T00:32:45.722Z,63.83
2023-04-13T00:35:18.580Z,63.37
2023-04-13T00:37:47.830Z,63.16
2023-04-13T00:40:17.922Z,64.24
2023-04-13T00:42:46.189Z,63.80
2023-04-13T00:45:14.725Z,64.36
2023-04-13T00:47:46.601Z,63.49
2023-04-13T00:50:15.348Z,63.91
2023-04-13T00:52:43.725Z,64.71
2023-04-13T00:55:11.707Z,64.60
2023-04-13T00:57:42.399Z,65.19
2023-04-13T01:00:11.033Z,65.02
2023-04-13T01:02:42.199Z,65.58
2023-04-13T01:05:12.937Z,65.27
2023-04-13T01:07:56.705Z,66.34
2023-04-13T01:10:30.309Z,65.49
2023-04-13T01:13:10.189Z,65.00
2023-04-13T01:15:41.372Z,66.02
2023-04-13T01:18:12.193Z,65.74
2023-04-13T01:20:44.080Z,65.63
2023-04-13T01:23:25.132Z,65.08
2023-04-13T01:25:58.167Z,65.04
2023-04-13T01:28:28.871Z,65.45
2023-04-13T01:31:00.829Z,65.83
2023-04-13T01:33:30.635Z,65.13
2023-04-13T01:36:01.252Z,65.22
2023-04-13T01:38:29.890Z,65.80
2023-04-13T01:40:58.186Z,65.76
2023-04-13T01:43:29.255Z,65.36
2023-04-13T01:46:04.101Z,66.14
2023-04-13T01:48:37.657Z,65.90
2023-04-13T01:51:09.844Z,65.88
2023-04-13T01:53:43.447Z,66.49
2023-04-13T01:56:12.969Z,66.20
2023-04-13T01:58:44.299Z,66.05
2023-04-13T02:01:12.755Z,66.32
2023-04-13T02:03:43.246Z,66.17
2023-04-13T02:06:11.792Z,66.65
2023-04-13T02:08:40.199Z,66.33
2023-04-13T02:11:08.715Z,65.39
2023-04-13T02:13:36.829Z,64.97
2023-04-13T02:16:07.841Z,64.24
2023-04-13T02:18:35.553Z,64.43
2023-04-13T02:21:08.956Z,64.76
2023-04-13T02:23:37.287Z,64.36
2023-04-13T02:26:05.644Z,64.42
2023-04-13T02:28:33.870Z,64.36
2023-04-13T02:31:03.197Z,64.10
2023-04-13T02:33:32.771Z,64.44
2023-04-13T02:36:02.735Z,64.42
2023-04-13T02:38:30.863Z,63.99
2023-04-13T02:41:00.544Z,63.77
2023-04-13T02:43:29.631Z,64.14
2023-04-13T02:45:58.276Z,63.76
2023-04-13T02:48:26.577Z,63.80
2023-04-13T02:50:56.738Z,63.94
2023-04-13T02:53:25.200Z,63.77
2023-04-13T02:55:53.657Z,63.88
2023-04-13T02:58:24.299Z,63.54
2023-04-13T03:00:52.149Z,63.64
2023-04-13T03:03:20.402Z,63.83
2023-04-13T03:05:51.136Z,64.03
2023-04-13T03:08:20.254Z,63.60
2023-04-13T03:10:48.022Z,64.38
2023-04-13T03:13:16.538Z,64.05
2023-04-13T03:15:44.204Z,63.77
2023-04-13T03:18:11.921Z,63.95
2023-04-13T03:20:40.341Z,64.04
2023-04-13T03:23:08.005Z,64.74
2023-04-13T03:25:37.066Z,64.03
2023-04-13T03:28:05.266Z,64.41
2023-04-13T03:30:33.039Z,64.33
2023-04-13T03:33:00.824Z,63.97
2023-04-13T03:35:29.122Z,64.33
2023-04-13T03:37:57.009Z,64.06
2023-04-13T03:40:24.776Z,64.72
2023-04-13T03:42:54.395Z,64.38
2023-04-13T03:45:21.904Z,64.44
2023-04-13T03:47:49.716Z,64.17
2023-04-13T03:50:18.113Z,64.83
2023-04-13T03:52:45.792Z,64.85
2023-04-13T03:55:13.633Z,64.83
2023-04-13T03:57:41.981Z,64.36
2023-04-13T04:00:14.278Z,64.74
2023-04-13T04:02:42.779Z,64.82
2023-04-13T04:05:11.462Z,64.51
2023-04-13T04:07:39.179Z,64.44
2023-04-13T04:10:08.809Z,64.61
2023-04-13T04:12:36.338Z,64.37
2023-04-13T04:15:05.358Z,64.71
2023-04-13T04:17:34.922Z,64.67
2023-04-13T04:20:03.716Z,64.74
2023-04-13T04:22:34.754Z,64.81
2023-04-13T04:25:02.984Z,64.74
2023-04-13T04:27:31.499Z,64.86
2023-04-13T04:30:00.918Z,64.76
2023-04-13T04:32:29.434Z,64.71
2023-04-13T04:34:58.538Z,64.79
2023-04-13T04:37:26.313Z,64.99
2023-04-13T04:39:55.445Z,64.80
2023-04-13T04:42:23.100Z,65.62
2023-04-13T04:44:50.760Z,65.22
2023-04-13T04:47:20.080Z,65.14
2023-04-13T04:49:47.821Z,65.31
2023-04-13T04:52:16.863Z,64.86
2023-04-13T04:54:45.034Z,64.60
2023-04-13T04:57:14.435Z,64.80
2023-04-13T04:59:42.136Z,64.89
2023-04-13T05:02:10.443Z,64.62
2023-04-13T05:04:38.366Z,64.92
2023-04-13T05:07:06.065Z,64.96
2023-04-13T05:09:37.551Z,64.88
2023-04-13T05:12:05.502Z,65.12
2023-04-13T05:14:33.239Z,64.73
2023-04-13T05:17:02.572Z,65.29
2023-04-13T05:19:30.283Z,65.27
2023-04-13T05:21:58.053Z,65.36
2023-04-13T05:24:26.491Z,65.17
2023-04-13T05:26:56.565Z,65.50
2023-04-13T05:29:24.303Z,65.03
2023-04-13T05:31:52.691Z,65.22
2023-04-13T05:34:21.121Z,65.21
2023-04-13T05:36:50.201Z,65.23
2023-04-13T05:39:18.392Z,65.41
2023-04-13T05:41:46.077Z,65.74
2023-04-13T05:44:15.119Z,65.28
2023-04-13T05:46:43.290Z,65.62
2023-04-13T05:49:11.084Z,65.30
2023-04-13T05:51:39.253Z,65.29
2023-04-13T05:54:10.200Z,64.94
2023-04-13T05:56:37.915Z,64.98
2023-04-13T05:59:05.596Z,64.49
2023-04-13T06:01:35.611Z,64.59
2023-04-13T06:04:03.704Z,64.99
2023-04-13T06:06:31.803Z,64.84
2023-04-13T06:09:00.363Z,64.66
2023-04-13T06:11:28.362Z,64.27
2023-04-13T06:13:57.522Z,64.55
2023-04-13T06:16:27.024Z,64.28
2023-04-13T06:18:56.199Z,64.48
2023-04-13T06:21:23.951Z,64.19
2023-04-13T06:23:52.206Z,64.04
2023-04-13T06:26:21.134Z,64.14
2023-04-13T06:28:48.871Z,64.27
2023-04-13T06:31:17.158Z,64.12
2023-04-13T06:33:44.856Z,64.07
2023-04-13T06:36:13.956Z,63.99
2023-04-13T06:38:43.419Z,63.79
2023-04-13T06:41:11.314Z,63.79
2023-04-13T06:43:38.999Z,63.67
2023-04-13T06:46:07.864Z,63.58
2023-04-13T06:48:35.953Z,63.39
2023-04-13T06:51:03.653Z,63.16
2023-04-13T06:53:33.945Z,62.66
2023-04-13T06:56:01.640Z,62.60
2023-04-13T06:58:30.155Z,62.35
2023-04-13T07:00:58.632Z,61.68
2023-04-13T07:03:28.262Z,61.75
2023-04-13T07:05:56.208Z,62.35
2023-04-13T07:08:24.423Z,62.01
2023-04-13T07:10:57.554Z,61.02
2023-04-13T07:13:26.313Z,61.05
2023-04-13T07:15:54.074Z,60.73
2023-04-13T07:18:21.827Z,60.28
2023-04-13T07:20:50.149Z,59.90
2023-04-13T07:23:18.014Z,59.72
2023-04-13T07:25:45.872Z,59.90
2023-04-13T07:28:15.508Z,59.67
2023-04-13T07:30:44.072Z,59.47
2023-04-13T07:33:12.256Z,59.38
2023-04-13T07:35:40.730Z,58.78
2023-04-13T07:38:08.507Z,58.58
2023-04-13T07:40:36.705Z,58.88
2023-04-13T07:43:04.821Z,58.05
2023-04-13T07:45:34.014Z,58.68
2023-04-13T07:48:01.781Z,58.05
2023-04-13T07:50:30.287Z,57.49
2023-04-13T07:52:58.013Z,56.41
2023-04-13T07:55:25.849Z,57.60
2023-04-13T07:57:54.194Z,56.60
2023-04-13T08:00:23.010Z,57.03
2023-04-13T08:02:52.393Z,56.26
2023-04-13T08:05:20.984Z,57.13
2023-04-13T08:07:49.317Z,56.04
2023-04-13T08:10:17.325Z,55.78
2023-04-13T08:12:45.576Z,55.28
2023-04-13T08:15:13.290Z,55.65
2023-04-13T08:17:41.894Z,55.81
2023-04-13T08:20:14.097Z,55.15
2023-04-13T08:22:41.933Z,55.52
2023-04-13T08:25:10.144Z,55.21
2023-04-13T08:27:38.454Z,56.16
2023-04-13T08:30:08.205Z,55.97
2023-04-13T08:32:35.930Z,55.18
2023-04-13T08:35:07.349Z,55.46
2023-04-13T08:37:36.825Z,54.97
2023-04-13T08:40:07.986Z,53.96
2023-04-13T08:42:36.571Z,54.36
2023-04-13T08:45:04.790Z,54.12
2023-04-13T08:47:33.098Z,54.56
2023-04-13T08:50:01.919Z,53.46
2023-04-13T08:52:30.379Z,53.91
2023-04-13T08:55:01.570Z,53.64
2023-04-13T08:57:30.402Z,54.13
2023-04-13T08:59:59.451Z,54.55
2023-04-13T09:02:33.437Z,54.38
2023-04-13T09:05:06.192Z,53.50
2023-04-13T09:07:37.192Z,52.94
2023-04-13T09:10:07.944Z,52.91
2023-04-13T09:12:35.805Z,53.07
2023-04-13T09:15:06.662Z,51.75
2023-04-13T09:17:35.129Z,52.35
2023-04-13T09:20:15.381Z,51.50
2023-04-13T09:22:43.491Z,51.53
2023-04-13T09:25:23.433Z,52.32
2023-04-13T09:27:53.008Z,51.63
2023-04-13T09:30:22.226Z,51.90
2023-04-13T09:33:03.408Z,51.97
2023-04-13T09:35:32.308Z,51.84
2023-04-13T09:38:00.681Z,50.85
2023-04-13T09:40:30.489Z,50.78
2023-04-13T09:43:00.921Z,50.09
2023-04-13T09:45:35.643Z,50.17
2023-04-13T09:48:03.784Z,50.30
2023-04-13T09:50:33.797Z,50.00
2023-04-13T09:53:02.252Z,49.50
2023-04-13T09:55:32.940Z,50.16
2023-04-13T09:58:10.598Z,49.32
2023-04-13T10:00:40.049Z,50.08
2023-04-13T10:03:12.371Z,49.47
2023-04-13T10:05:55.275Z,49.66
2023-04-13T10:08:37.513Z,49.33
2023-04-13T10:11:11.973Z,49.35
2023-04-13T10:13:47.446Z,49.21
2023-04-13T10:16:36.682Z,47.68
2023-04-13T10:19:11.529Z,48.83
2023-04-13T10:21:40.855Z,47.69
2023-04-13T10:24:12.994Z,46.56
2023-04-13T10:26:45.000Z,47.16
2023-04-13T10:29:15.138Z,48.79
2023-04-13T10:31:46.694Z,48.00
2023-04-13T10:34:25.869Z,47.38
2023-04-13T10:36:56.164Z,47.90
2023-04-13T10:39:28.382Z,46.85
2023-04-13T10:42:05.815Z,47.14
2023-04-13T10:44:47.415Z,46.54
2023-04-13T10:47:16.424Z,45.08
2023-04-13T10:49:46.041Z,45.39
2023-04-13T10:52:14.007Z,46.70
2023-04-13T10:54:42.783Z,43.98
2023-04-13T10:57:12.926Z,45.69
2023-04-13T10:59:56.282Z,45.57
2023-04-13T11:02:27.606Z,43.75
2023-04-13T11:04:56.327Z,44.24
2023-04-13T11:07:25.957Z,44.13
2023-04-13T11:12:31.118Z,43.98
2023-04-13T11:14:59.368Z,43.05
2023-04-13T11:17:27.503Z,43.35
2023-04-13T11:19:57.192Z,43.00
2023-04-13T11:22:28.329Z,43.30
2023-04-13T11:25:08.582Z,43.46
2023-04-13T11:27:39.135Z,41.25
2023-04-13T11:30:09.247Z,41.31
2023-04-13T11:32:40.825Z,42.38
2023-04-13T11:35:09.663Z,40.70
2023-04-13T11:37:38.483Z,42.49
2023-04-13T11:40:13.156Z,41.97
2023-04-13T11:42:44.724Z,40.11
2023-04-13T11:45:15.211Z,40.65
2023-04-13T11:47:43.474Z,40.25
2023-04-13T11:50:13.005Z,38.02
2023-04-13T11:52:43.085Z,39.49
2023-04-13T11:55:22.169Z,39.55
2023-04-13T11:57:53.823Z,39.92
2023-04-13T12:00:25.854Z,37.99
2023-04-13T12:05:28.363Z,38.71
2023-04-13T12:07:58.685Z,37.50
2023-04-13T12:10:38.186Z,38.00
2023-04-13T12:16:05.392Z,35.78
2023-04-13T12:18:43.901Z,38.38
2023-04-13T12:21:16.360Z,37.41
2023-04-13T12:23:54.165Z,37.90
2023-04-13T12:28:58.137Z,37.78
2023-04-13T12:31:26.306Z,36.66
2023-04-13T12:33:54.036Z,36.61
2023-04-13T12:36:22.472Z,36.46
2023-04-13T12:38:50.316Z,38.07
2023-04-13T12:41:17.991Z,37.34
2023-04-13T12:43:46.360Z,37.48
2023-04-13T12:46:15.627Z,36.80
2023-04-13T12:48:43.328Z,36.44
2023-04-13T12:51:11.930Z,36.26
2023-04-13T12:53:39.907Z,36.41
2023-04-13T12:56:08.340Z,35.77
2023-04-13T12:58:36.922Z,36.32
2023-04-13T13:01:04.896Z,36.33
2023-04-13T13:03:34.039Z,35.98
2023-04-13T13:06:01.845Z,35.95
2023-04-13T13:08:30.516Z,35.84
2023-04-13T13:10:58.918Z,35.69
2023-04-13T13:13:27.173Z,35.96
2023-04-13T13:15:54.843Z,36.21
2023-04-13T13:18:22.514Z,35.88
2023-04-13T13:20:54.018Z,34.95
2023-04-13T13:23:21.742Z,35.30
2023-04-13T13:26:10.618Z,35.81
2023-04-13T13:28:38.962Z,35.23
2023-04-13T13:31:07.910Z,35.04
2023-04-13T13:33:36.268Z,35.09
2023-04-13T13:36:06.127Z,36.02
2023-04-13T13:38:35.840Z,36.60
2023-04-13T13:41:04.433Z,36.52
2023-04-13T13:43:32.526Z,36.42
2023-04-13T13:46:00.275Z,36.96
2023-04-13T13:48:28.268Z,35.08
2023-04-13T13:50:56.828Z,34.92
2023-04-13T13:53:25.881Z,34.11
2023-04-13T13:55:54.059Z,34.84
2023-04-13T13:58:22.489Z,34.08
2023-04-13T14:00:50.439Z,34.12
2023-04-13T14:03:18.514Z,34.01
2023-04-13T14:05:46.622Z,33.15
2023-04-13T14:08:14.343Z,33.97
2023-04-13T14:10:48.527Z,33.97
2023-04-13T14:13:16.302Z,33.91
2023-04-13T14:15:44.001Z,35.22
2023-04-13T14:18:12.275Z,35.17
2023-04-13T14:20:40.647Z,35.82
2023-04-13T14:23:09.375Z,35.34
2023-04-13T14:25:37.743Z,34.73
2023-04-13T14:28:09.290Z,35.24
2023-04-13T14:30:37.402Z,34.64
2023-04-13T14:33:05.748Z,34.68
2023-04-13T14:35:33.505Z,35.14
2023-04-13T14:38:02.010Z,34.78
2023-04-13T14:40:29.777Z,35.63
2023-04-13T14:42:57.616Z,35.76
2023-04-13T14:45:27.177Z,35.52
2023-04-13T14:47:54.731Z,36.34
2023-04-13T14:50:22.929Z,35.15
2023-04-13T14:52:51.347Z,34.34
2023-04-13T14:55:19.262Z,34.64
2023-04-13T14:57:47.059Z,35.31
2023-04-13T15:00:21.686Z,34.54
2023-04-13T15:02:52.419Z,33.34
2023-04-13T15:05:20.618Z,33.05
2023-04-13T15:07:49.008Z,32.73
2023-04-13T15:10:17.655Z,32.37
2023-04-13T15:12:45.436Z,32.04
2023-04-13T15:15:13.764Z,32.83
2023-04-13T15:17:41.484Z,33.04
2023-04-13T15:20:12.039Z,33.64
2023-04-13T15:22:40.459Z,32.80
2023-04-13T15:25:08.703Z,32.99
2023-04-13T15:27:36.501Z,33.93
2023-04-13T15:30:04.918Z,33.42
2023-04-13T15:32:34.796Z,35.21
2023-04-13T15:35:02.770Z,35.88
2023-04-13T15:37:32.650Z,36.50
2023-04-13T15:40:01.433Z,37.13
2023-04-13T15:42:29.697Z,36.57
2023-04-13T15:44:58.259Z,35.95
2023-04-13T15:47:26.004Z,35.80
2023-04-13T15:49:54.246Z,35.29
2023-04-13T15:52:23.088Z,35.97
2023-04-13T15:54:52.460Z,36.01
2023-04-13T15:57:20.781Z,36.08
2023-04-13T16:02:38.169Z,36.39
2023-04-13T16:05:08.464Z,36.38
2023-04-13T16:07:36.850Z,36.54
2023-04-13T16:10:07.832Z,36.93
2023-04-13T16:12:40.132Z,36.96
2023-04-13T16:15:09.211Z,37.38
2023-04-13T16:17:40.872Z,37.46
2023-04-13T16:20:19.681Z,38.11
2023-04-13T16:22:50.003Z,38.75
2023-04-13T16:25:20.392Z,38.74
2023-04-13T16:27:49.295Z,39.29
2023-04-13T16:30:21.321Z,39.24
2023-04-13T16:32:50.928Z,39.44
2023-04-13T16:35:19.276Z,39.55
2023-04-13T16:37:47.883Z,39.50
2023-04-13T16:40:16.897Z,39.48
2023-04-13T16:42:46.812Z,39.76
2023-04-13T16:45:15.595Z,39.93
2023-04-13T16:47:43.899Z,39.96
2023-04-13T16:50:13.326Z,39.65
2023-04-13T16:52:41.999Z,39.73
2023-04-13T16:55:15.053Z,39.91
2023-04-13T16:57:44.505Z,39.63
2023-04-13T17:00:15.635Z,40.60
2023-04-13T17:02:44.425Z,39.38
2023-04-13T17:05:13.614Z,39.00
2023-04-13T17:07:42.649Z,39.30
2023-04-13T17:10:13.069Z,39.14
2023-04-13T17:12:41.565Z,39.82
2023-04-13T17:15:10.751Z,39.07
2023-04-13T17:17:40.722Z,39.60
2023-04-13T17:20:10.146Z,39.38
2023-04-13T17:22:38.563Z,39.25
2023-04-13T17:25:07.934Z,39.33
2023-04-13T17:27:36.023Z,39.62
2023-04-13T17:30:04.288Z,39.46
2023-04-13T17:32:32.830Z,39.58
2023-04-13T17:35:02.233Z,39.63
2023-04-13T17:37:30.528Z,39.33
2023-04-13T17:39:59.086Z,39.41
2023-04-13T17:42:28.351Z,39.66
2023-04-13T17:44:56.499Z,39.32
2023-04-13T17:47:26.176Z,39.68
2023-04-13T17:49:54.074Z,39.58
2023-04-13T17:52:23.431Z,39.41
2023-04-13T17:54:52.082Z,39.43
2023-04-13T17:57:20.063Z,39.33
2023-04-13T17:59:47.946Z,40.25
2023-04-13T18:02:16.530Z,39.84
2023-04-13T18:04:44.580Z,40.36
2023-04-13T18:07:12.466Z,40.21
2023-04-13T18:09:42.329Z,39.86
2023-04-13T18:12:10.229Z,40.54
2023-04-13T18:14:38.114Z,40.62
2023-04-13T18:17:07.414Z,40.75
2023-04-13T18:19:35.376Z,40.11
2023-04-13T18:22:03.494Z,40.86
2023-04-13T18:24:32.140Z,39.99
2023-04-13T18:27:01.428Z,40.15
2023-04-13T18:29:29.459Z,40.09
2023-04-13T18:31:58.200Z,40.44
2023-04-13T18:34:26.490Z,40.39
2023-04-13T18:36:54.514Z,40.56
2023-04-13T18:39:23.137Z,41.15
2023-04-13T18:41:51.277Z,41.42
2023-04-13T18:44:20.641Z,41.61
2023-04-13T18:46:49.392Z,41.45
2023-04-13T18:49:17.478Z,41.44
2023-04-13T18:51:45.543Z,41.79
2023-04-13T18:54:14.108Z,41.44
2023-04-13T18:56:42.205Z,41.61
2023-04-13T18:59:10.676Z,42.01
2023-04-13T19:01:40.868Z,42.23
2023-04-13T19:04:09.043Z,41.67
2023-04-13T19:06:38.656Z,41.70
2023-04-13T19:09:07.151Z,41.71
2023-04-13T19:11:47.574Z,41.60
2023-04-13T19:14:16.378Z,42.03
2023-04-13T19:16:48.150Z,41.91
2023-04-13T19:19:17.177Z,42.58
2023-04-13T19:21:45.740Z,42.61
2023-04-13T19:24:14.377Z,42.57
2023-04-13T19:26:43.087Z,42.76
2023-04-13T19:29:13.106Z,42.60
2023-04-13T19:31:44.354Z,42.70
2023-04-13T19:34:14.327Z,43.05
2023-04-13T19:36:42.841Z,43.37
2023-04-13T19:39:11.467Z,43.73
2023-04-13T19:41:41.169Z,43.31
2023-04-13T19:44:09.814Z,43.84
2023-04-13T19:46:39.175Z,43.72
2023-04-13T19:49:07.952Z,44.15
2023-04-13T19:51:37.427Z,43.72
2023-04-13T19:54:06.661Z,44.34
2023-04-13T19:56:35.826Z,44.01
2023-04-13T19:59:05.599Z,44.21
2023-04-13T20:01:35.252Z,44.33
2023-04-13T20:04:05.007Z,44.05
2023-04-13T20:06:34.439Z,44.20
2023-04-13T20:09:12.344Z,44.29
2023-04-13T20:11:41.263Z,45.16
2023-04-13T20:14:09.937Z,44.89
2023-04-13T20:16:39.237Z,45.09
2023-04-13T20:19:09.300Z,45.12
2023-04-13T20:21:38.052Z,45.07
2023-04-13T20:24:06.710Z,45.32
2023-04-13T20:26:36.201Z,45.77
2023-04-13T20:29:05.462Z,45.93
2023-04-13T20:31:34.887Z,45.92
2023-04-13T20:34:04.154Z,46.21
2023-04-13T20:36:32.658Z,46.08
2023-04-13T20:39:01.376Z,46.17
2023-04-13T20:41:32.248Z,46.41
2023-04-13T20:44:02.798Z,46.07
2023-04-13T20:46:35.738Z,46.43
2023-04-13T20:49:05.637Z,46.34
2023-04-13T20:51:34.232Z,46.52
2023-04-13T20:54:05.708Z,46.62
2023-04-13T20:56:34.365Z,46.83
2023-04-13T20:59:04.633Z,46.94
2023-04-13T21:01:33.309Z,47.23
2023-04-13T21:04:01.573Z,47.13
2023-04-13T21:06:30.267Z,47.42
2023-04-13T21:08:59.318Z,47.12
2023-04-13T21:11:27.500Z,47.35
2023-04-13T21:13:55.989Z,47.23
2023-04-13T21:16:27.078Z,47.51
2023-04-13T21:18:56.033Z,47.33
2023-04-13T21:21:25.069Z,47.74
2023-04-13T21:23:54.870Z,47.70
2023-04-13T21:26:22.590Z,47.59
2023-04-13T21:28:50.956Z,47.59
2023-04-13T21:31:19.533Z,47.90
2023-04-13T21:33:49.622Z,47.78
2023-04-13T21:38:49.580Z,47.74
2023-04-13T21:41:18.398Z,47.85
2023-04-13T21:43:47.155Z,48.09
2023-04-13T21:46:16.956Z,47.69
2023-04-13T21:48:45.073Z,48.06
2023-04-13T21:51:14.518Z,48.14
2023-04-13T21:53:43.022Z,47.97
2023-04-13T21:56:10.715Z,47.98
2023-04-13T21:58:40.438Z,48.30
2023-04-13T22:01:08.835Z,47.20
2023-04-13T22:03:37.954Z,48.05
2023-04-13T22:06:07.466Z,47.90
2023-04-13T22:08:37.707Z,47.98
2023-04-13T22:11:06.474Z,48.28
2023-04-13T22:13:34.674Z,48.21
2023-04-13T22:16:02.622Z,48.27
2023-04-13T22:18:30.590Z,48.59
2023-04-13T22:20:59.990Z,48.19
2023-04-13T22:23:28.628Z,48.41
2023-04-13T22:26:01.464Z,48.52
2023-04-13T22:28:30.937Z,48.59
2023-04-13T22:30:59.467Z,48.76
2023-04-13T22:33:32.260Z,48.66
2023-04-13T22:36:00.327Z,48.54
2023-04-13T22:38:28.380Z,49.00
2023-04-13T22:40:58.926Z,48.93
2023-04-13T22:43:26.998Z,48.66
2023-04-13T22:45:59.392Z,49.04
2023-04-13T22:48:29.607Z,49.51
2023-04-13T22:50:57.912Z,49.01
2023-04-13T22:53:26.684Z,49.42
2023-04-13T22:55:54.844Z,49.21
2023-04-13T22:58:24.323Z,49.36
2023-04-13T23:00:53.143Z,49.26
2023-04-13T23:03:21.465Z,49.32
2023-04-13T23:05:49.859Z,49.31
2023-04-13T23:08:18.440Z,49.25
2023-04-13T23:10:46.626Z,49.47
2023-04-13T23:13:14.512Z,49.32
2023-04-13T23:15:44.183Z,49.57
2023-04-13T23:18:11.921Z,48.74
2023-04-13T23:20:39.926Z,49.33
2023-04-13T23:23:08.426Z,49.56
2023-04-13T23:25:36.431Z,49.36
2023-04-13T23:28:04.567Z,49.61
2023-04-13T23:30:33.136Z,49.64
2023-04-13T23:33:02.770Z,49.83
2023-04-13T23:35:30.488Z,48.60
2023-04-13T23:37:58.983Z,49.36
2023-04-13T23:40:27.133Z,49.18
2023-04-13T23:42:55.050Z,49.71
2023-04-13T23:45:23.593Z,49.87
2023-04-13T23:47:51.742Z,50.08
2023-04-13T23:50:21.573Z,49.93
2023-04-13T23:52:50.195Z,50.12
2023-04-13T23:55:18.145Z,50.22
2023-04-13T23:57:46.749Z,50.16
